sensor_id;sensor_type;location;lat;lon;timestamp;temperature;humidity
28725;DHT22;43472;48.980;9.646;2023-02-15T00:07:46;2.80;99.90
28725;DHT22;43472;48.980;9.646;2023-02-15T00:53:08;4.80;99.90
28725;DHT22;43472;48.980;9.646;2023-02-15T00:58:11;2.50;99.90
28725;DHT22;43472;48.980;9.646;2023-02-15T01:03:15;2.50;99.90
28725;DHT22;43472;48.980;9.646;2023-02-15T01:23:24;2.30;99.90
28725;DHT22;43472;48.980;9.646;2023-02-15T01:28:28;2.20;99.90
28725;DHT22;43472;48.980;9.646;2023-02-15T01:38:32;2.20;99.90
28725;DHT22;43472;48.980;9.646;2023-02-15T01:43:42;2.20;99.90
28725;DHT22;43472;48.980;9.646;2023-02-15T01:48:47;2.00;99.90
28725;DHT22;43472;48.980;9.646;2023-02-15T01:53:55;2.00;99.90
28725;DHT22;43472;48.980;9.646;2023-02-15T01:59:04;2.00;99.90
28725;DHT22;43472;48.980;9.646;2023-02-15T02:04:23;2.10;99.90
28725;DHT22;43472;48.980;9.646;2023-02-15T02:14:29;2.00;99.90
28725;DHT22;43472;48.980;9.646;2023-02-15T02:20:09;2.00;99.90
28725;DHT22;43472;48.980;9.646;2023-02-15T02:30:53;1.90;99.90
28725;DHT22;43472;48.980;9.646;2023-02-15T02:36:11;1.80;99.90
28725;DHT22;43472;48.980;9.646;2023-02-15T02:41:36;1.70;99.90
28725;DHT22;43472;48.980;9.646;2023-02-15T02:52:01;1.70;99.90
28725;DHT22;43472;48.980;9.646;2023-02-15T02:57:07;0.90;99.90
28725;DHT22;43472;48.980;9.646;2023-02-15T03:02:18;1.50;99.90
28725;DHT22;43472;48.980;9.646;2023-02-15T03:12:32;1.70;99.90
28725;DHT22;43472;48.980;9.646;2023-02-15T03:17:38;1.60;99.90
28725;DHT22;43472;48.980;9.646;2023-02-15T03:22:48;1.60;99.90
28725;DHT22;43472;48.980;9.646;2023-02-15T03:27:55;1.50;99.90
28725;DHT22;43472;48.980;9.646;2023-02-15T03:33:00;1.40;99.90
28725;DHT22;43472;48.980;9.646;2023-02-15T03:38:07;1.50;99.90
28725;DHT22;43472;48.980;9.646;2023-02-15T03:48:36;1.30;99.90
28725;DHT22;43472;48.980;9.646;2023-02-15T03:53:40;1.40;99.90
28725;DHT22;43472;48.980;9.646;2023-02-15T04:04:18;1.40;99.90
28725;DHT22;43472;48.980;9.646;2023-02-15T04:30:48;1.10;99.90
28725;DHT22;43472;48.980;9.646;2023-02-15T05:26:20;0.90;99.90
28725;DHT22;43472;48.980;9.646;2023-02-15T05:31:41;0.90;99.90
28725;DHT22;43472;48.980;9.646;2023-02-15T06:07:00;0.90;99.90
28725;DHT22;43472;48.980;9.646;2023-02-15T06:12:02;1.50;99.90
28725;DHT22;43472;48.980;9.646;2023-02-15T06:17:04;0.70;99.90
28725;DHT22;43472;48.980;9.646;2023-02-15T06:22:06;0.70;99.90
28725;DHT22;43472;48.980;9.646;2023-02-15T06:27:11;0.80;99.90
28725;DHT22;43472;48.980;9.646;2023-02-15T07:07:30;1.00;99.90
28725;DHT22;43472;48.980;9.646;2023-02-15T07:12:34;1.20;99.90
28725;DHT22;43472;48.980;9.646;2023-02-15T07:17:47;1.20;99.90
28725;DHT22;43472;48.980;9.646;2023-02-15T07:27:59;1.40;99.90
28725;DHT22;43472;48.980;9.646;2023-02-15T07:33:02;1.60;99.90
28725;DHT22;43472;48.980;9.646;2023-02-15T07:38:24;1.80;99.90
28725;DHT22;43472;48.980;9.646;2023-02-15T07:43:28;2.00;99.90
28725;DHT22;43472;48.980;9.646;2023-02-15T07:48:31;1.60;99.90
28725;DHT22;43472;48.980;9.646;2023-02-15T07:53:33;1.40;99.90
28725;DHT22;43472;48.980;9.646;2023-02-15T07:58:36;1.70;99.90
28725;DHT22;43472;48.980;9.646;2023-02-15T08:03:53;2.00;99.90
28725;DHT22;43472;48.980;9.646;2023-02-15T08:08:56;2.00;99.90
28725;DHT22;43472;48.980;9.646;2023-02-15T08:14:09;2.40;99.90
28725;DHT22;43472;48.980;9.646;2023-02-15T08:24:26;2.90;99.90
28725;DHT22;43472;48.980;9.646;2023-02-15T08:29:29;3.00;99.90
28725;DHT22;43472;48.980;9.646;2023-02-15T08:34:34;3.80;99.90
28725;DHT22;43472;48.980;9.646;2023-02-15T08:39:36;3.80;99.90
28725;DHT22;43472;48.980;9.646;2023-02-15T08:44:38;3.80;99.90
28725;DHT22;43472;48.980;9.646;2023-02-15T08:54:42;4.60;99.90
28725;DHT22;43472;48.980;9.646;2023-02-15T08:59:45;7.00;99.90
28725;DHT22;43472;48.980;9.646;2023-02-15T09:04:49;5.00;99.90
28725;DHT22;43472;48.980;9.646;2023-02-15T09:09:51;5.30;99.90
28725;DHT22;43472;48.980;9.646;2023-02-15T09:14:53;5.50;99.90
28725;DHT22;43472;48.980;9.646;2023-02-15T09:19:56;5.60;99.90
28725;DHT22;43472;48.980;9.646;2023-02-15T09:24:58;6.00;99.90
28725;DHT22;43472;48.980;9.646;2023-02-15T09:45:57;8.00;99.90
28725;DHT22;43472;48.980;9.646;2023-02-15T09:51:19;8.90;99.90
28725;DHT22;43472;48.980;9.646;2023-02-15T09:56:32;8.80;99.90
28725;DHT22;43472;48.980;9.646;2023-02-15T10:02:08;9.00;99.90
28725;DHT22;43472;48.980;9.646;2023-02-15T10:34:35;8.60;99.90
28725;DHT22;43472;48.980;9.646;2023-02-15T11:06:32;9.70;99.90
28725;DHT22;43472;48.980;9.646;2023-02-15T11:11:38;10.30;99.90
28725;DHT22;43472;48.980;9.646;2023-02-15T11:16:45;11.80;99.90
28725;DHT22;43472;48.980;9.646;2023-02-15T11:21:50;13.00;99.90
28725;DHT22;43472;48.980;9.646;2023-02-15T11:27:01;14.00;99.90
28725;DHT22;43472;48.980;9.646;2023-02-15T11:32:14;17.70;99.40
28725;DHT22;43472;48.980;9.646;2023-02-15T11:37:23;17.30;94.10
28725;DHT22;43472;48.980;9.646;2023-02-15T11:42:31;17.40;94.40
28725;DHT22;43472;48.980;9.646;2023-02-15T11:47:34;17.90;92.70
28725;DHT22;43472;48.980;9.646;2023-02-15T11:52:36;18.40;91.80
28725;DHT22;43472;48.980;9.646;2023-02-15T11:57:42;18.50;89.70
28725;DHT22;43472;48.980;9.646;2023-02-15T12:02:50;18.90;89.30
28725;DHT22;43472;48.980;9.646;2023-02-15T12:08:02;19.20;86.00
28725;DHT22;43472;48.980;9.646;2023-02-15T12:23:47;23.20;72.80
28725;DHT22;43472;48.980;9.646;2023-02-15T12:28:50;22.90;69.40
28725;DHT22;43472;48.980;9.646;2023-02-15T12:33:56;23.70;65.90
28725;DHT22;43472;48.980;9.646;2023-02-15T12:39:18;24.60;60.60
28725;DHT22;43472;48.980;9.646;2023-02-15T12:44:27;21.70;64.80
28725;DHT22;43472;48.980;9.646;2023-02-15T12:49:35;20.70;65.20
28725;DHT22;43472;48.980;9.646;2023-02-15T13:00:33;18.60;70.70
28725;DHT22;43472;48.980;9.646;2023-02-15T13:16:07;16.10;74.30
28725;DHT22;43472;48.980;9.646;2023-02-15T13:21:16;14.90;78.10
28725;DHT22;43472;48.980;9.646;2023-02-15T13:26:22;15.40;77.00
28725;DHT22;43472;48.980;9.646;2023-02-15T13:31:27;17.50;71.70
28725;DHT22;43472;48.980;9.646;2023-02-15T13:41:56;24.80;54.20
28725;DHT22;43472;48.980;9.646;2023-02-15T13:52:22;27.10;52.00
28725;DHT22;43472;48.980;9.646;2023-02-15T13:57:57;29.20;46.70
28725;DHT22;43472;48.980;9.646;2023-02-15T14:13:46;31.00;43.40
28725;DHT22;43472;48.980;9.646;2023-02-15T14:24:26;33.20;41.00
28725;DHT22;43472;48.980;9.646;2023-02-15T14:30:02;33.80;38.80
28725;DHT22;43472;48.980;9.646;2023-02-15T14:35:17;32.40;39.10
28725;DHT22;43472;48.980;9.646;2023-02-15T14:40:36;33.30;38.80
28725;DHT22;43472;48.980;9.646;2023-02-15T15:02:26;31.80;41.10
28725;DHT22;43472;48.980;9.646;2023-02-15T15:07:45;30.70;42.60
28725;DHT22;43472;48.980;9.646;2023-02-15T15:12:55;27.80;45.20
28725;DHT22;43472;48.980;9.646;2023-02-15T15:18:07;24.70;50.00
28725;DHT22;43472;48.980;9.646;2023-02-15T15:44:55;15.90;71.60
28725;DHT22;43472;48.980;9.646;2023-02-15T15:50:00;15.50;74.30
28725;DHT22;43472;48.980;9.646;2023-02-15T15:55:14;15.00;77.20
28725;DHT22;43472;48.980;9.646;2023-02-15T16:05:38;14.00;77.70
28725;DHT22;43472;48.980;9.646;2023-02-15T16:10:40;13.50;79.40
28725;DHT22;43472;48.980;9.646;2023-02-15T16:15:47;13.30;80.20
28725;DHT22;43472;48.980;9.646;2023-02-15T16:20:55;12.40;83.50
28725;DHT22;43472;48.980;9.646;2023-02-15T16:31:34;12.00;85.20
28725;DHT22;43472;48.980;9.646;2023-02-15T16:41:38;11.40;88.70
28725;DHT22;43472;48.980;9.646;2023-02-15T16:46:42;11.00;90.20
28725;DHT22;43472;48.980;9.646;2023-02-15T16:51:58;10.70;90.80
28725;DHT22;43472;48.980;9.646;2023-02-15T16:57:01;10.20;91.60
28725;DHT22;43472;48.980;9.646;2023-02-15T17:02:05;10.10;91.80
28725;DHT22;43472;48.980;9.646;2023-02-15T17:07:16;10.10;92.20
28725;DHT22;43472;48.980;9.646;2023-02-15T17:13:15;9.80;92.80
28725;DHT22;43472;48.980;9.646;2023-02-15T17:18:21;9.50;93.40
28725;DHT22;43472;48.980;9.646;2023-02-15T17:23:33;9.40;93.50
28725;DHT22;43472;48.980;9.646;2023-02-15T17:28:36;9.20;93.90
28725;DHT22;43472;48.980;9.646;2023-02-15T17:33:38;8.90;94.90
28725;DHT22;43472;48.980;9.646;2023-02-15T17:39:06;8.70;95.10
28725;DHT22;43472;48.980;9.646;2023-02-15T17:44:08;8.50;95.70
28725;DHT22;43472;48.980;9.646;2023-02-15T17:49:25;10.90;96.70
28725;DHT22;43472;48.980;9.646;2023-02-15T17:54:29;8.30;96.20
28725;DHT22;43472;48.980;9.646;2023-02-15T17:59:50;8.80;96.40
28725;DHT22;43472;48.980;9.646;2023-02-15T18:05:14;7.90;97.30
28725;DHT22;43472;48.980;9.646;2023-02-15T18:10:35;7.80;97.30
28725;DHT22;43472;48.980;9.646;2023-02-15T18:15:55;7.70;98.10
28725;DHT22;43472;48.980;9.646;2023-02-15T18:20:58;7.50;98.50
28725;DHT22;43472;48.980;9.646;2023-02-15T18:25:59;7.30;98.70
28725;DHT22;43472;48.980;9.646;2023-02-15T18:42:51;7.00;99.50
28725;DHT22;43472;48.980;9.646;2023-02-15T18:47:53;6.90;99.90
28725;DHT22;43472;48.980;9.646;2023-02-15T18:52:55;6.80;99.90
28725;DHT22;43472;48.980;9.646;2023-02-15T18:57:57;6.50;99.90
28725;DHT22;43472;48.980;9.646;2023-02-15T19:03:00;6.60;99.90
28725;DHT22;43472;48.980;9.646;2023-02-15T19:08:03;6.30;99.90
28725;DHT22;43472;48.980;9.646;2023-02-15T19:13:10;6.30;99.90
28725;DHT22;43472;48.980;9.646;2023-02-15T19:18:12;7.00;99.90
28725;DHT22;43472;48.980;9.646;2023-02-15T19:23:18;6.30;99.90
28725;DHT22;43472;48.980;9.646;2023-02-15T19:28:29;6.10;99.90
28725;DHT22;43472;48.980;9.646;2023-02-15T19:33:33;6.30;99.90
28725;DHT22;43472;48.980;9.646;2023-02-15T19:38:35;6.00;99.90
28725;DHT22;43472;48.980;9.646;2023-02-15T19:43:37;5.90;99.90
28725;DHT22;43472;48.980;9.646;2023-02-15T19:48:39;5.90;99.90
28725;DHT22;43472;48.980;9.646;2023-02-15T19:53:41;5.50;99.90
28725;DHT22;43472;48.980;9.646;2023-02-15T19:58:43;5.50;99.90
28725;DHT22;43472;48.980;9.646;2023-02-15T20:03:45;5.40;99.90
28725;DHT22;43472;48.980;9.646;2023-02-15T20:08:47;5.40;99.90
28725;DHT22;43472;48.980;9.646;2023-02-15T20:13:49;5.60;99.90
28725;DHT22;43472;48.980;9.646;2023-02-15T20:18:50;5.50;99.90
28725;DHT22;43472;48.980;9.646;2023-02-15T20:23:52;5.50;99.90
28725;DHT22;43472;48.980;9.646;2023-02-15T20:28:54;5.40;99.90
28725;DHT22;43472;48.980;9.646;2023-02-15T20:33:56;5.30;99.90
28725;DHT22;43472;48.980;9.646;2023-02-15T20:39:01;5.30;99.90
28725;DHT22;43472;48.980;9.646;2023-02-15T20:44:25;5.10;99.90
28725;DHT22;43472;48.980;9.646;2023-02-15T20:49:28;5.10;99.90
28725;DHT22;43472;48.980;9.646;2023-02-15T20:54:32;5.10;99.90
28725;DHT22;43472;48.980;9.646;2023-02-15T20:59:36;5.10;99.90
28725;DHT22;43472;48.980;9.646;2023-02-15T21:04:38;5.00;99.90
28725;DHT22;43472;48.980;9.646;2023-02-15T21:09:39;5.00;99.90
28725;DHT22;43472;48.980;9.646;2023-02-15T21:14:42;5.00;99.90
28725;DHT22;43472;48.980;9.646;2023-02-15T21:19:44;4.80;99.90
28725;DHT22;43472;48.980;9.646;2023-02-15T21:24:49;4.90;99.90
28725;DHT22;43472;48.980;9.646;2023-02-15T21:29:51;4.50;99.90
28725;DHT22;43472;48.980;9.646;2023-02-15T21:34:53;4.50;99.90
28725;DHT22;43472;48.980;9.646;2023-02-15T21:39:55;4.50;99.90
28725;DHT22;43472;48.980;9.646;2023-02-15T21:44:57;4.70;99.90
28725;DHT22;43472;48.980;9.646;2023-02-15T21:50:23;6.20;99.90
28725;DHT22;43472;48.980;9.646;2023-02-15T21:55:44;4.40;99.90
28725;DHT22;43472;48.980;9.646;2023-02-15T22:00:46;4.30;99.90
28725;DHT22;43472;48.980;9.646;2023-02-15T22:05:48;4.40;99.90
28725;DHT22;43472;48.980;9.646;2023-02-15T22:10:52;4.30;99.90
28725;DHT22;43472;48.980;9.646;2023-02-15T22:15:55;4.40;99.90
28725;DHT22;43472;48.980;9.646;2023-02-15T22:20:57;4.50;99.90
28725;DHT22;43472;48.980;9.646;2023-02-15T22:26:10;4.30;99.90
28725;DHT22;43472;48.980;9.646;2023-02-15T22:31:19;4.40;99.90
28725;DHT22;43472;48.980;9.646;2023-02-15T22:36:22;4.40;99.90
28725;DHT22;43472;48.980;9.646;2023-02-15T22:41:28;4.20;99.90
28725;DHT22;43472;48.980;9.646;2023-02-15T22:46:30;4.10;99.90
28725;DHT22;43472;48.980;9.646;2023-02-15T22:51:32;4.10;99.90
28725;DHT22;43472;48.980;9.646;2023-02-15T22:56:39;4.10;99.90
28725;DHT22;43472;48.980;9.646;2023-02-15T23:01:42;4.10;99.90
28725;DHT22;43472;48.980;9.646;2023-02-15T23:06:44;4.00;99.90
28725;DHT22;43472;48.980;9.646;2023-02-15T23:11:47;4.00;99.90
28725;DHT22;43472;48.980;9.646;2023-02-15T23:16:50;5.00;99.90
28725;DHT22;43472;48.980;9.646;2023-02-15T23:21:52;4.10;99.90
28725;DHT22;43472;48.980;9.646;2023-02-15T23:26:54;3.80;99.90
28725;DHT22;43472;48.980;9.646;2023-02-15T23:32:16;3.80;99.90
28725;DHT22;43472;48.980;9.646;2023-02-15T23:37:18;3.80;99.90
28725;DHT22;43472;48.980;9.646;2023-02-15T23:42:25;3.70;99.90
28725;DHT22;43472;48.980;9.646;2023-02-15T23:47:31;3.50;99.90
28725;DHT22;43472;48.980;9.646;2023-02-15T23:52:53;3.50;99.90
28725;DHT22;43472;48.980;9.646;2023-02-15T23:57:55;3.50;99.90
